createdAt,value
2022-10-18T00:02:23.720Z,8.79
2022-10-18T00:04:50.630Z,8.74
2022-10-18T00:07:17.413Z,8.74
2022-10-18T00:09:44.323Z,8.76
2022-10-18T00:12:12.182Z,8.80
2022-10-18T00:14:39.073Z,8.65
2022-10-18T00:17:05.962Z,8.69
2022-10-18T00:19:32.773Z,8.64
2022-10-18T00:21:59.564Z,8.52
2022-10-18T00:24:26.462Z,8.56
2022-10-18T00:26:53.321Z,8.54
2022-10-18T00:29:20.272Z,8.49
2022-10-18T00:31:47.122Z,8.53
2022-10-18T00:34:15.993Z,8.61
2022-10-18T00:36:44.044Z,8.51
2022-10-18T00:39:19.883Z,8.61
2022-10-18T00:41:46.783Z,8.65
2022-10-18T00:44:13.648Z,8.41
2022-10-18T00:46:43.453Z,8.39
2022-10-18T00:49:25.354Z,8.39
2022-10-18T00:51:58.097Z,8.15
2022-10-18T00:54:25.718Z,8.39
2022-10-18T00:56:52.868Z,8.34
2022-10-18T00:59:20.342Z,8.33
2022-10-18T01:01:47.311Z,8.30
2022-10-18T01:04:16.130Z,8.34
2022-10-18T01:06:58.254Z,8.39
2022-10-18T01:09:41.540Z,8.35
2022-10-18T01:12:25.091Z,7.97
2022-10-18T01:14:59.703Z,8.23
2022-10-18T01:17:26.542Z,8.27
2022-10-18T01:20:16.632Z,8.10
2022-10-18T01:23:04.222Z,8.23
2022-10-18T01:26:20.613Z,8.30
2022-10-18T01:28:56.267Z,8.34
2022-10-18T01:31:40.026Z,8.31
2022-10-18T01:34:10.493Z,8.30
2022-10-18T01:36:48.491Z,8.26
2022-10-18T01:39:37.983Z,8.27
2022-10-18T01:42:10.135Z,8.20
2022-10-18T01:44:39.295Z,8.15
2022-10-18T01:47:10.609Z,7.99
2022-10-18T01:49:37.621Z,8.07
2022-10-18T01:52:05.008Z,7.93
2022-10-18T01:54:40.225Z,7.96
2022-10-18T01:57:19.823Z,7.98
2022-10-18T02:00:00.110Z,7.90
2022-10-18T02:02:41.356Z,7.82
2022-10-18T02:05:33.222Z,7.81
2022-10-18T02:08:22.068Z,7.86
2022-10-18T02:10:55.310Z,7.86
2022-10-18T02:13:24.032Z,7.87
2022-10-18T02:15:56.601Z,7.88
2022-10-18T02:18:28.293Z,7.91
2022-10-18T02:20:56.052Z,7.79
2022-10-18T02:23:26.919Z,8.03
2022-10-18T02:25:54.272Z,8.06
2022-10-18T02:28:22.020Z,8.05
2022-10-18T02:31:27.700Z,7.97
2022-10-18T02:33:58.971Z,7.95
2022-10-18T02:36:33.767Z,7.93
2022-10-18T02:39:25.361Z,7.95
2022-10-18T02:41:55.623Z,7.97
2022-10-18T02:44:22.467Z,7.87
2022-10-18T02:46:49.349Z,7.84
2022-10-18T02:49:17.585Z,7.67
2022-10-18T02:51:44.391Z,7.84
2022-10-18T02:54:11.301Z,7.96
2022-10-18T02:56:38.225Z,7.91
2022-10-18T02:59:07.472Z,7.88
2022-10-18T03:01:37.562Z,7.78
2022-10-18T03:04:07.788Z,7.79
2022-10-18T03:06:34.732Z,7.76
2022-10-18T03:09:06.572Z,7.75
2022-10-18T03:11:33.483Z,7.72
2022-10-18T03:14:03.090Z,7.67
2022-10-18T03:16:30.039Z,7.64
2022-10-18T03:18:57.023Z,7.67
2022-10-18T03:21:23.882Z,7.82
2022-10-18T03:23:50.714Z,7.58
2022-10-18T03:26:17.738Z,7.60
2022-10-18T03:28:44.684Z,7.60
2022-10-18T03:31:11.636Z,7.59
2022-10-18T03:33:38.551Z,7.58
2022-10-18T03:36:05.552Z,7.53
2022-10-18T03:38:32.433Z,7.52
2022-10-18T03:40:59.362Z,7.43
2022-10-18T03:43:26.263Z,7.47
2022-10-18T03:45:53.151Z,7.56
2022-10-18T03:48:20.145Z,7.75
2022-10-18T03:50:46.912Z,7.74
2022-10-18T03:53:13.982Z,7.72
2022-10-18T03:55:41.162Z,7.91
2022-10-18T03:58:08.007Z,8.04
2022-10-18T04:00:35.142Z,8.16
2022-10-18T04:03:02.172Z,8.18
2022-10-18T04:05:31.045Z,8.36
2022-10-18T04:07:58.632Z,8.47
2022-10-18T04:10:26.035Z,8.57
2022-10-18T04:12:53.051Z,8.62
2022-10-18T04:15:20.657Z,8.57
2022-10-18T04:17:47.712Z,8.61
2022-10-18T04:20:14.764Z,8.63
2022-10-18T04:22:41.620Z,8.64
2022-10-18T04:25:08.982Z,8.62
2022-10-18T04:27:36.582Z,8.55
2022-10-18T04:30:04.062Z,8.60
2022-10-18T04:32:31.068Z,8.62
2022-10-18T04:34:57.895Z,8.56
2022-10-18T04:37:24.744Z,8.61
2022-10-18T04:39:53.712Z,8.60
2022-10-18T04:42:22.122Z,8.58
2022-10-18T04:44:48.992Z,8.58
2022-10-18T04:47:16.874Z,8.60
2022-10-18T04:49:43.735Z,8.60
2022-10-18T04:52:11.932Z,8.45
2022-10-18T04:54:38.841Z,8.55
2022-10-18T04:57:05.705Z,8.71
2022-10-18T04:59:32.525Z,8.85
2022-10-18T05:01:59.457Z,8.92
2022-10-18T05:04:26.354Z,8.94
2022-10-18T05:06:53.163Z,9.01
2022-10-18T05:09:22.499Z,9.33
2022-10-18T05:11:49.291Z,9.96
2022-10-18T05:14:16.370Z,10.54
2022-10-18T05:16:43.221Z,11.13
2022-10-18T05:19:10.062Z,11.81
2022-10-18T05:21:36.863Z,12.26
2022-10-18T05:24:04.086Z,12.60
2022-10-18T05:26:30.913Z,12.06
2022-10-18T05:28:58.013Z,12.68
2022-10-18T05:31:24.915Z,13.55
2022-10-18T05:33:51.724Z,14.46
2022-10-18T05:36:18.885Z,15.19
2022-10-18T05:38:48.474Z,15.49
2022-10-18T05:41:15.389Z,16.20
2022-10-18T05:43:42.281Z,16.57
2022-10-18T05:46:14.692Z,17.04
2022-10-18T05:48:44.928Z,17.78
2022-10-18T05:51:12.176Z,18.03
2022-10-18T05:53:39.069Z,18.58
2022-10-18T05:56:07.285Z,18.82
2022-10-18T05:58:35.741Z,19.58
2022-10-18T06:01:03.417Z,19.74
2022-10-18T06:03:33.553Z,20.07
2022-10-18T06:06:05.821Z,20.71
2022-10-18T06:08:33.324Z,20.91
2022-10-18T06:11:00.337Z,21.47
2022-10-18T06:13:29.104Z,21.98
2022-10-18T06:15:58.025Z,21.88
2022-10-18T06:18:24.925Z,22.62
2022-10-18T06:20:59.192Z,22.89
2022-10-18T06:23:27.694Z,22.68
2022-10-18T06:25:58.162Z,22.31
2022-10-18T06:28:25.178Z,22.49
2022-10-18T06:30:52.019Z,23.49
2022-10-18T06:33:18.879Z,24.05
2022-10-18T06:35:58.375Z,24.16
2022-10-18T06:38:25.771Z,24.89
2022-10-18T06:40:53.891Z,25.15
2022-10-18T06:43:21.661Z,25.39
2022-10-18T06:46:08.271Z,25.37
2022-10-18T06:48:36.508Z,26.07
2022-10-18T06:51:05.568Z,26.17
2022-10-18T06:53:40.730Z,26.03
2022-10-18T06:56:13.032Z,25.96
2022-10-18T06:58:40.993Z,25.75
2022-10-18T07:01:10.027Z,24.81
2022-10-18T07:03:37.071Z,24.80
2022-10-18T07:06:09.007Z,25.37
2022-10-18T07:08:36.214Z,25.01
2022-10-18T07:11:03.542Z,25.66
2022-10-18T07:13:33.103Z,25.29
2022-10-18T07:16:01.369Z,25.18
2022-10-18T07:18:28.398Z,25.77
2022-10-18T07:20:55.263Z,25.32
2022-10-18T07:23:23.985Z,24.59
2022-10-18T07:25:51.334Z,25.07
2022-10-18T07:28:18.495Z,25.26
2022-10-18T07:30:45.311Z,24.83
2022-10-18T07:33:12.160Z,24.69
2022-10-18T07:35:38.953Z,24.38
2022-10-18T07:38:05.743Z,24.54
2022-10-18T07:40:32.723Z,24.90
2022-10-18T07:43:04.089Z,24.74
2022-10-18T07:45:32.272Z,24.78
2022-10-18T07:47:59.267Z,24.15
2022-10-18T07:50:26.175Z,24.12
2022-10-18T07:52:52.941Z,24.61
2022-10-18T07:55:19.922Z,24.62
2022-10-18T07:57:46.763Z,24.41
2022-10-18T08:00:14.072Z,24.36
2022-10-18T08:02:40.999Z,23.63
2022-10-18T08:05:08.098Z,23.84
2022-10-18T08:07:35.086Z,24.36
2022-10-18T08:10:02.071Z,23.90
2022-10-18T08:12:29.005Z,24.57
2022-10-18T08:14:55.759Z,24.93
2022-10-18T08:17:22.593Z,24.37
2022-10-18T08:19:58.567Z,23.75
2022-10-18T08:22:36.419Z,23.08
2022-10-18T08:25:04.581Z,23.73
2022-10-18T08:27:31.724Z,23.38
2022-10-18T08:30:00.091Z,23.18
2022-10-18T08:32:28.580Z,21.57
2022-10-18T08:34:55.482Z,22.15
2022-10-18T08:37:22.557Z,21.91
2022-10-18T08:39:49.330Z,22.03
2022-10-18T08:42:41.195Z,21.17
2022-10-18T08:45:18.024Z,20.88
2022-10-18T08:47:58.280Z,21.39
2022-10-18T08:50:35.488Z,21.32
2022-10-18T08:53:20.633Z,21.61
2022-10-18T08:56:05.274Z,20.55
2022-10-18T08:58:33.800Z,20.28
2022-10-18T09:01:21.817Z,19.58
2022-10-18T09:04:08.882Z,20.27
2022-10-18T09:06:38.957Z,20.54
2022-10-18T09:09:25.134Z,21.12
2022-10-18T09:12:03.973Z,20.58
2022-10-18T09:14:39.905Z,20.62
2022-10-18T09:17:26.012Z,20.38
2022-10-18T09:20:11.024Z,20.49
2022-10-18T09:22:46.872Z,20.39
2022-10-18T09:25:21.055Z,20.89
2022-10-18T09:27:57.135Z,20.69
2022-10-18T09:30:37.440Z,21.28
2022-10-18T09:33:13.258Z,21.12
2022-10-18T09:35:55.027Z,20.96
2022-10-18T09:38:26.710Z,21.29
2022-10-18T09:41:02.577Z,20.54
2022-10-18T09:43:48.335Z,21.24
2022-10-18T09:46:18.354Z,21.17
2022-10-18T09:49:06.136Z,21.28
2022-10-18T09:51:40.096Z,21.79
2022-10-18T09:54:28.435Z,21.75
2022-10-18T09:57:02.756Z,20.48
2022-10-18T09:59:41.494Z,20.72
2022-10-18T10:02:22.672Z,20.38
2022-10-18T10:04:50.431Z,20.49
2022-10-18T10:07:19.987Z,21.38
2022-10-18T10:09:55.767Z,21.44
2022-10-18T10:12:27.953Z,21.58
2022-10-18T10:14:54.957Z,21.98
2022-10-18T10:17:29.870Z,21.53
2022-10-18T10:20:20.343Z,21.88
2022-10-18T10:22:48.216Z,21.06
2022-10-18T10:25:32.957Z,20.75
2022-10-18T10:28:05.411Z,20.45
2022-10-18T10:30:35.703Z,20.64
2022-10-18T10:33:03.713Z,20.62
2022-10-18T10:38:25.270Z,21.53
2022-10-18T10:40:52.883Z,21.57
2022-10-18T10:43:38.168Z,21.38
2022-10-18T10:46:08.221Z,21.75
2022-10-18T10:48:46.090Z,21.29
2022-10-18T10:51:13.510Z,21.23
2022-10-18T10:53:42.930Z,20.68
2022-10-18T10:56:37.590Z,20.77
2022-10-18T10:59:14.609Z,20.68
2022-10-18T11:01:42.104Z,20.74
2022-10-18T11:04:30.067Z,20.44
2022-10-18T11:07:09.500Z,20.37
2022-10-18T11:09:46.197Z,20.73
2022-10-18T11:12:38.141Z,20.81
2022-10-18T11:15:12.118Z,20.72
2022-10-18T11:18:00.766Z,20.93
2022-10-18T11:20:49.436Z,21.56
2022-10-18T11:23:18.225Z,21.60
2022-10-18T11:26:03.223Z,20.99
2022-10-18T11:29:03.097Z,21.17
2022-10-18T11:31:40.552Z,21.27
2022-10-18T11:34:32.751Z,21.40
2022-10-18T11:37:37.529Z,21.18
2022-10-18T11:40:43.880Z,20.76
2022-10-18T11:43:19.623Z,20.59
2022-10-18T11:46:05.430Z,20.69
2022-10-18T11:48:42.965Z,20.71
2022-10-18T11:51:34.011Z,20.70
2022-10-18T11:54:17.892Z,20.72
2022-10-18T11:57:16.475Z,20.73
2022-10-18T11:59:58.951Z,20.78
2022-10-18T12:02:37.810Z,20.64
2022-10-18T12:05:24.367Z,20.69
2022-10-18T12:08:01.244Z,20.77
2022-10-18T12:10:52.770Z,20.77
2022-10-18T12:13:34.076Z,20.80
2022-10-18T12:16:04.314Z,20.63
2022-10-18T12:18:33.117Z,20.95
2022-10-18T12:21:01.974Z,20.85
2022-10-18T12:23:54.920Z,20.72
2022-10-18T12:26:23.043Z,20.87
2022-10-18T12:29:08.538Z,20.80
2022-10-18T12:31:42.300Z,20.82
2022-10-18T12:34:42.029Z,20.88
2022-10-18T12:37:42.139Z,21.35
2022-10-18T12:40:21.879Z,21.62
2022-10-18T12:42:52.290Z,21.30
2022-10-18T12:45:35.059Z,21.23
2022-10-18T12:48:38.884Z,20.90
2022-10-18T12:51:16.415Z,20.78
2022-10-18T12:53:46.548Z,20.85
2022-10-18T12:56:28.631Z,20.83
2022-10-18T12:59:16.774Z,20.94
2022-10-18T13:01:55.545Z,20.92
2022-10-18T13:04:28.614Z,21.02
2022-10-18T13:06:58.535Z,20.79
2022-10-18T13:10:08.379Z,21.02
2022-10-18T13:12:44.126Z,21.04
2022-10-18T13:15:26.278Z,21.39
2022-10-18T13:18:05.912Z,21.47
2022-10-18T13:20:53.561Z,21.57
2022-10-18T13:23:41.664Z,21.46
2022-10-18T13:26:32.058Z,21.34
2022-10-18T13:29:14.863Z,21.21
2022-10-18T13:34:49.846Z,21.19
2022-10-18T13:37:16.635Z,21.11
2022-10-18T13:39:43.707Z,21.19
2022-10-18T13:42:16.549Z,21.16
2022-10-18T13:44:44.892Z,20.83
2022-10-18T13:47:32.129Z,20.96
2022-10-18T13:50:21.675Z,20.70
2022-10-18T13:53:08.269Z,20.53
2022-10-18T13:56:26.256Z,20.68
2022-10-18T13:59:28.987Z,20.50
2022-10-18T14:02:51.832Z,20.52
2022-10-18T14:05:47.410Z,20.26
2022-10-18T14:08:20.959Z,20.40
2022-10-18T14:11:21.516Z,20.56
2022-10-18T14:14:08.203Z,20.56
2022-10-18T14:16:46.374Z,20.43
2022-10-18T14:19:37.023Z,20.64
2022-10-18T14:22:09.630Z,20.45
2022-10-18T14:24:41.068Z,20.24
2022-10-18T14:27:20.052Z,20.24
2022-10-18T14:29:48.541Z,20.20
2022-10-18T14:32:30.252Z,20.35
2022-10-18T14:35:27.338Z,20.28
2022-10-18T14:37:44.347Z,20.26
2022-10-18T14:40:39.145Z,20.31
2022-10-18T14:43:12.751Z,20.13
2022-10-18T14:45:41.022Z,20.21
2022-10-18T14:48:34.198Z,20.13
2022-10-18T14:51:03.304Z,20.09
2022-10-18T14:53:37.392Z,20.13
2022-10-18T14:56:04.910Z,20.07
2022-10-18T14:58:32.937Z,19.95
2022-10-18T15:01:00.032Z,19.92
2022-10-18T15:03:28.525Z,19.82
2022-10-18T15:06:01.938Z,19.87
2022-10-18T15:08:40.696Z,19.64
2022-10-18T15:11:11.857Z,19.63
2022-10-18T15:13:59.956Z,19.66
2022-10-18T15:16:30.981Z,19.62
2022-10-18T15:19:15.896Z,19.49
2022-10-18T15:25:06.085Z,19.37
2022-10-18T15:27:37.032Z,19.24
2022-10-18T15:30:11.151Z,19.19
2022-10-18T15:32:40.499Z,18.95
2022-10-18T15:35:14.658Z,18.99
2022-10-18T15:37:47.620Z,18.92
2022-10-18T15:40:23.353Z,18.86
2022-10-18T15:42:52.705Z,18.80
2022-10-18T15:45:25.412Z,18.79
2022-10-18T15:48:09.527Z,18.67
2022-10-18T15:50:45.021Z,18.57
2022-10-18T15:53:21.409Z,18.51
2022-10-18T15:56:31.231Z,18.37
2022-10-18T15:59:00.752Z,18.25
2022-10-18T16:01:38.843Z,18.23
2022-10-18T16:04:12.672Z,18.11
2022-10-18T16:06:39.559Z,18.03
2022-10-18T16:09:06.730Z,18.20
2022-10-18T16:11:33.592Z,18.10
2022-10-18T16:14:00.830Z,17.90
2022-10-18T16:16:47.232Z,17.71
2022-10-18T16:19:15.831Z,17.55
2022-10-18T16:21:42.962Z,17.46
2022-10-18T16:24:09.933Z,17.30
2022-10-18T16:26:37.822Z,16.96
2022-10-18T16:29:05.772Z,16.88
2022-10-18T16:31:34.628Z,16.77
2022-10-18T16:34:02.660Z,16.47
2022-10-18T16:36:33.822Z,16.43
2022-10-18T16:39:03.832Z,16.19
2022-10-18T16:41:30.670Z,15.95
2022-10-18T16:43:57.512Z,15.80
2022-10-18T16:46:30.051Z,15.42
2022-10-18T16:48:57.984Z,15.34
2022-10-18T16:51:25.167Z,15.40
2022-10-18T16:53:53.832Z,15.11
2022-10-18T16:56:24.487Z,15.13
2022-10-18T16:58:52.099Z,14.99
2022-10-18T17:01:21.289Z,14.96
2022-10-18T17:03:48.801Z,14.78
2022-10-18T17:06:24.514Z,14.71
2022-10-18T17:08:52.163Z,14.72
2022-10-18T17:11:20.133Z,14.69
2022-10-18T17:13:47.294Z,14.46
2022-10-18T17:16:31.369Z,14.39
2022-10-18T17:19:00.564Z,14.38
2022-10-18T17:21:28.850Z,14.35
2022-10-18T17:23:57.594Z,14.38
2022-10-18T17:26:29.257Z,14.31
2022-10-18T17:28:59.605Z,14.19
2022-10-18T17:31:26.972Z,14.19
2022-10-18T17:33:55.493Z,14.02
2022-10-18T17:36:22.778Z,13.92
2022-10-18T17:38:53.969Z,13.63
2022-10-18T17:41:21.353Z,13.70
2022-10-18T17:43:48.697Z,13.62
2022-10-18T17:46:16.085Z,13.45
2022-10-18T17:48:43.219Z,13.57
2022-10-18T17:51:12.003Z,13.61
2022-10-18T17:53:39.309Z,13.50
2022-10-18T17:56:07.856Z,13.35
2022-10-18T17:58:35.172Z,13.16
2022-10-18T18:01:28.472Z,13.04
2022-10-18T18:04:03.472Z,13.01
2022-10-18T18:06:40.187Z,12.89
2022-10-18T18:09:10.582Z,12.74
2022-10-18T18:11:38.878Z,12.67
2022-10-18T18:14:10.013Z,12.58
2022-10-18T18:16:39.289Z,12.62
2022-10-18T18:19:09.662Z,12.42
2022-10-18T18:21:37.929Z,12.44
2022-10-18T18:24:05.191Z,12.34
2022-10-18T18:26:33.564Z,12.33
2022-10-18T18:31:30.772Z,12.32
2022-10-18T18:34:01.264Z,12.32
2022-10-18T18:36:32.680Z,12.28
2022-10-18T18:38:59.627Z,12.21
2022-10-18T18:41:28.619Z,12.08
2022-10-18T18:43:57.991Z,11.98
2022-10-18T18:46:27.073Z,11.82
2022-10-18T18:48:54.292Z,11.85
2022-10-18T18:51:22.136Z,11.70
2022-10-18T18:53:49.190Z,11.77
2022-10-18T18:58:54.378Z,11.51
2022-10-18T19:01:24.093Z,11.50
2022-10-18T19:03:53.391Z,11.46
2022-10-18T19:06:41.163Z,11.46
2022-10-18T19:09:18.551Z,11.54
2022-10-18T19:11:47.162Z,11.56
2022-10-18T19:14:15.139Z,11.48
2022-10-18T19:16:47.619Z,11.37
2022-10-18T19:19:19.680Z,11.29
2022-10-18T19:21:49.559Z,11.29
2022-10-18T19:24:16.370Z,11.30
2022-10-18T19:26:46.240Z,11.44
2022-10-18T19:29:29.881Z,11.29
2022-10-18T19:31:59.463Z,11.14
2022-10-18T19:34:28.515Z,11.07
2022-10-18T19:36:55.629Z,11.06
2022-10-18T19:39:24.702Z,11.12
2022-10-18T19:41:55.337Z,11.17
2022-10-18T19:44:23.998Z,11.19
2022-10-18T19:46:51.648Z,11.12
2022-10-18T19:49:18.603Z,10.98
2022-10-18T19:51:45.642Z,10.89
2022-10-18T19:54:14.030Z,10.78
2022-10-18T19:56:44.369Z,10.73
2022-10-18T19:59:12.778Z,10.65
2022-10-18T20:01:39.707Z,10.73
2022-10-18T20:04:08.397Z,10.59
2022-10-18T20:06:36.249Z,10.52
2022-10-18T20:09:03.525Z,10.44
2022-10-18T20:11:30.652Z,10.34
2022-10-18T20:13:57.826Z,10.33
2022-10-18T20:16:28.865Z,10.33
2022-10-18T20:19:00.945Z,10.32
2022-10-18T20:21:29.399Z,10.20
2022-10-18T20:23:56.711Z,10.37
2022-10-18T20:26:25.558Z,10.43
2022-10-18T20:28:57.242Z,10.49
2022-10-18T20:31:29.318Z,10.41
2022-10-18T20:33:59.124Z,10.17
2022-10-18T20:36:27.091Z,10.35
2022-10-18T20:38:55.072Z,10.33
2022-10-18T20:41:28.500Z,10.56
2022-10-18T20:44:10.887Z,10.63
2022-10-18T20:46:38.601Z,10.65
2022-10-18T20:49:07.110Z,10.66
2022-10-18T20:51:34.419Z,10.55
2022-10-18T20:56:34.439Z,10.55
2022-10-18T20:59:01.908Z,10.50
2022-10-18T21:01:31.868Z,10.49
2022-10-18T21:04:01.565Z,10.47
2022-10-18T21:06:34.283Z,10.51
2022-10-18T21:09:03.383Z,10.49
2022-10-18T21:11:34.343Z,10.36
2022-10-18T21:14:04.897Z,10.30
2022-10-18T21:16:33.866Z,10.27
2022-10-18T21:19:05.051Z,10.24
2022-10-18T21:21:31.934Z,10.15
2022-10-18T21:24:02.408Z,10.04
2022-10-18T21:26:32.282Z,10.06
2022-10-18T21:28:59.939Z,9.87
2022-10-18T21:31:29.640Z,9.79
2022-10-18T21:33:59.093Z,9.76
2022-10-18T21:36:27.544Z,9.71
2022-10-18T21:38:54.417Z,9.63
2022-10-18T21:41:21.930Z,9.62
2022-10-18T21:43:51.185Z,9.72
2022-10-18T21:46:19.986Z,9.68
2022-10-18T21:48:49.184Z,9.80
2022-10-18T21:51:18.506Z,10.04
2022-10-18T21:53:47.254Z,10.18
2022-10-18T21:56:19.618Z,10.13
2022-10-18T21:58:46.967Z,10.19
2022-10-18T22:01:15.364Z,10.32
2022-10-18T22:03:42.902Z,10.46
2022-10-18T22:06:14.715Z,10.38
2022-10-18T22:08:43.675Z,10.33
2022-10-18T22:11:12.625Z,10.37
2022-10-18T22:13:39.934Z,10.24
2022-10-18T22:16:07.883Z,10.27
2022-10-18T22:18:35.595Z,10.27
2022-10-18T22:21:06.278Z,10.31
2022-10-18T22:23:35.736Z,10.18
2022-10-18T22:26:14.653Z,10.10
2022-10-18T22:28:43.005Z,10.03
2022-10-18T22:33:32.502Z,9.90
2022-10-18T22:35:59.322Z,9.71
2022-10-18T22:38:26.123Z,9.60
2022-10-18T22:40:53.189Z,9.53
2022-10-18T22:43:19.983Z,9.41
2022-10-18T22:45:46.897Z,9.37
2022-10-18T22:48:13.732Z,9.34
2022-10-18T22:50:40.636Z,9.34
2022-10-18T22:53:07.742Z,9.44
2022-10-18T22:55:34.627Z,9.43
2022-10-18T22:58:07.757Z,9.51
2022-10-18T23:00:34.718Z,9.53
2022-10-18T23:03:01.730Z,9.28
2022-10-18T23:05:28.843Z,9.40
2022-10-18T23:07:55.633Z,9.39
2022-10-18T23:10:22.685Z,9.52
2022-10-18T23:12:49.534Z,9.53
2022-10-18T23:15:16.369Z,9.62
2022-10-18T23:17:43.366Z,9.57
2022-10-18T23:20:10.575Z,9.59
2022-10-18T23:22:37.514Z,9.55
2022-10-18T23:25:04.766Z,9.63
2022-10-18T23:27:31.790Z,9.48
2022-10-18T23:29:58.665Z,9.32
2022-10-18T23:32:43.935Z,9.22
2022-10-18T23:35:11.120Z,9.13
2022-10-18T23:37:38.183Z,9.15
2022-10-18T23:40:05.462Z,9.18
2022-10-18T23:42:32.359Z,9.18
2022-10-18T23:44:59.162Z,9.08
2022-10-18T23:47:26.002Z,8.99
2022-10-18T23:49:53.388Z,8.91
2022-10-18T23:52:20.220Z,8.97
2022-10-18T23:54:47.268Z,8.92
2022-10-18T23:57:14.493Z,8.64
2022-10-18T23:59:41.319Z,8.46
